createdAt,value
2023-03-18T00:01:12.816Z,17.55
2023-03-18T00:03:40.982Z,17.13
2023-03-18T00:06:19.479Z,14.13
2023-03-18T00:08:49.211Z,15.00
2023-03-18T00:11:19.570Z,15.65
2023-03-18T00:13:49.531Z,17.05
2023-03-18T00:16:17.878Z,19.65
2023-03-18T00:18:46.000Z,19.85
2023-03-18T00:21:14.483Z,15.45
2023-03-18T00:23:43.001Z,15.07
2023-03-18T00:26:10.776Z,24.55
2023-03-18T00:28:42.313Z,15.20
2023-03-18T00:31:13.337Z,15.15
2023-03-18T00:33:46.801Z,13.55
2023-03-18T00:36:18.569Z,12.82
2023-03-18T00:38:51.179Z,18.85
2023-03-18T00:41:19.332Z,11.27
2023-03-18T00:43:57.876Z,21.00
2023-03-18T00:46:28.988Z,16.45
2023-03-18T00:49:00.793Z,15.07
2023-03-18T00:51:31.832Z,19.33
2023-03-18T00:54:03.201Z,19.00
2023-03-18T00:56:32.724Z,13.25
2023-03-18T00:59:01.446Z,12.68
2023-03-18T01:01:29.985Z,10.75
2023-03-18T01:04:00.849Z,13.45
2023-03-18T01:06:32.558Z,12.40
2023-03-18T01:09:01.901Z,21.63
2023-03-18T01:11:30.357Z,16.85
2023-03-18T01:13:59.981Z,14.95
2023-03-18T01:16:28.832Z,14.70
2023-03-18T01:18:57.520Z,15.57
2023-03-18T01:21:26.178Z,18.30
2023-03-18T01:23:57.780Z,16.83
2023-03-18T01:26:27.283Z,14.70
2023-03-18T01:28:58.030Z,17.17
2023-03-18T01:31:26.106Z,17.23
2023-03-18T01:33:58.325Z,13.73
2023-03-18T01:36:26.064Z,15.18
2023-03-18T01:39:07.947Z,14.30
2023-03-18T01:41:37.320Z,16.50
2023-03-18T01:44:14.435Z,14.52
2023-03-18T01:46:45.967Z,15.15
2023-03-18T01:49:29.068Z,12.90
2023-03-18T01:52:02.868Z,11.45
2023-03-18T01:54:34.120Z,14.02
2023-03-18T01:57:02.951Z,13.65
2023-03-18T01:59:34.098Z,16.88
2023-03-18T02:02:11.503Z,12.60
2023-03-18T02:04:46.385Z,15.93
2023-03-18T02:07:21.313Z,14.98
2023-03-18T02:09:51.311Z,15.80
2023-03-18T02:12:24.875Z,16.30
2023-03-18T02:14:57.131Z,13.05
2023-03-18T02:17:28.406Z,17.88
2023-03-18T02:20:18.957Z,12.93
2023-03-18T02:22:54.185Z,15.20
2023-03-18T02:25:50.075Z,17.50
2023-03-18T02:28:23.981Z,20.27
2023-03-18T02:30:56.349Z,18.65
2023-03-18T02:33:30.088Z,11.30
2023-03-18T02:36:04.742Z,15.02
2023-03-18T02:38:44.245Z,13.02
2023-03-18T02:41:20.744Z,12.20
2023-03-18T02:43:50.608Z,11.20
2023-03-18T02:46:41.276Z,16.42
2023-03-18T02:49:11.303Z,14.15
2023-03-18T02:51:40.074Z,16.27
2023-03-18T02:54:30.359Z,11.70
2023-03-18T02:56:59.105Z,13.52
2023-03-18T02:59:27.807Z,17.80
2023-03-18T03:01:58.222Z,11.00
2023-03-18T03:04:27.343Z,14.55
2023-03-18T03:06:57.857Z,13.63
2023-03-18T03:09:37.178Z,17.55
2023-03-18T03:12:07.985Z,11.30
2023-03-18T03:14:41.082Z,9.10
2023-03-18T03:17:10.232Z,15.15
2023-03-18T03:19:38.990Z,13.32
2023-03-18T03:22:07.670Z,7.35
2023-03-18T03:24:37.722Z,11.48
2023-03-18T03:27:07.995Z,14.90
2023-03-18T03:29:35.856Z,13.40
2023-03-18T03:32:04.551Z,11.68
2023-03-18T03:34:32.282Z,10.25
2023-03-18T03:37:00.388Z,12.38
2023-03-18T03:39:28.584Z,9.82
2023-03-18T03:41:57.103Z,12.07
2023-03-18T03:44:24.732Z,7.60
2023-03-18T03:46:53.321Z,10.30
2023-03-18T03:49:23.238Z,14.05
2023-03-18T03:51:51.828Z,11.40
2023-03-18T03:54:20.565Z,9.43
2023-03-18T03:56:49.100Z,12.60
2023-03-18T03:59:17.861Z,10.73
2023-03-18T04:02:04.957Z,9.65
2023-03-18T04:04:32.990Z,13.60
2023-03-18T04:07:01.771Z,10.50
2023-03-18T04:09:29.716Z,10.90
2023-03-18T04:11:58.191Z,12.65
2023-03-18T04:14:26.719Z,11.95
2023-03-18T04:16:58.429Z,14.00
2023-03-18T04:19:27.828Z,12.27
2023-03-18T04:21:56.923Z,8.35
2023-03-18T04:24:26.540Z,10.48
2023-03-18T04:26:55.340Z,9.38
2023-03-18T04:29:23.707Z,10.77
2023-03-18T04:31:52.056Z,10.90
2023-03-18T04:34:22.769Z,9.77
2023-03-18T04:36:51.037Z,12.07
2023-03-18T04:39:19.533Z,13.88
2023-03-18T04:41:48.468Z,13.50
2023-03-18T04:44:17.584Z,14.52
2023-03-18T04:46:56.561Z,9.63
2023-03-18T04:49:25.834Z,13.68
2023-03-18T04:51:55.658Z,11.43
2023-03-18T04:54:29.311Z,14.63
2023-03-18T04:57:01.894Z,10.25
2023-03-18T04:59:33.026Z,8.73
2023-03-18T05:02:05.116Z,12.20
2023-03-18T05:04:34.177Z,11.63
2023-03-18T05:07:02.684Z,10.80
2023-03-18T05:09:36.177Z,10.38
2023-03-18T05:12:05.846Z,12.43
2023-03-18T05:14:37.791Z,10.23
2023-03-18T05:17:06.225Z,7.05
2023-03-18T05:19:37.977Z,14.90
2023-03-18T05:22:14.231Z,7.70
2023-03-18T05:24:43.865Z,10.68
2023-03-18T05:27:12.553Z,8.60
2023-03-18T05:29:45.212Z,10.50
2023-03-18T05:32:20.831Z,10.23
2023-03-18T05:34:55.299Z,9.52
2023-03-18T05:37:24.169Z,9.98
2023-03-18T05:40:00.469Z,8.05
2023-03-18T05:42:29.588Z,7.00
2023-03-18T05:44:58.395Z,9.38
2023-03-18T05:47:28.313Z,7.60
2023-03-18T05:50:05.340Z,11.57
2023-03-18T05:52:35.718Z,11.57
2023-03-18T05:55:06.822Z,13.15
2023-03-18T05:57:39.134Z,10.68
2023-03-18T06:00:10.772Z,7.32
2023-03-18T06:02:47.246Z,7.78
2023-03-18T06:05:16.939Z,12.93
2023-03-18T06:07:47.474Z,12.27
2023-03-18T06:10:15.621Z,9.60
2023-03-18T06:12:46.076Z,10.98
2023-03-18T06:15:13.867Z,7.55
2023-03-18T06:17:42.502Z,9.80
2023-03-18T06:20:12.256Z,12.77
2023-03-18T06:22:40.750Z,9.50
2023-03-18T06:25:08.643Z,16.48
2023-03-18T06:27:39.458Z,8.55
2023-03-18T06:30:07.977Z,7.25
2023-03-18T06:32:38.633Z,14.50
2023-03-18T06:35:07.452Z,7.70
2023-03-18T06:37:39.412Z,8.13
2023-03-18T06:40:09.681Z,7.47
2023-03-18T06:42:38.559Z,8.40
2023-03-18T06:45:18.583Z,14.98
2023-03-18T06:47:53.823Z,8.23
2023-03-18T06:50:22.576Z,8.77
2023-03-18T06:52:51.146Z,9.90
2023-03-18T06:55:26.647Z,11.45
2023-03-18T06:57:55.285Z,13.07
2023-03-18T07:00:28.954Z,9.45
2023-03-18T07:02:58.529Z,9.32
2023-03-18T07:05:28.744Z,11.45
2023-03-18T07:07:57.047Z,6.90
2023-03-18T07:10:28.490Z,12.43
2023-03-18T07:13:03.661Z,10.13
2023-03-18T07:15:32.253Z,14.40
2023-03-18T07:18:03.444Z,6.38
2023-03-18T07:20:33.168Z,11.07
2023-03-18T07:23:02.074Z,9.75
2023-03-18T07:25:32.372Z,14.85
2023-03-18T07:28:01.023Z,7.65
2023-03-18T07:30:29.322Z,10.63
2023-03-18T07:32:58.315Z,11.10
2023-03-18T07:35:28.368Z,9.70
2023-03-18T07:37:57.263Z,8.98
2023-03-18T07:40:24.941Z,6.75
2023-03-18T07:42:54.117Z,13.05
2023-03-18T07:45:21.919Z,12.23
2023-03-18T07:47:50.550Z,9.55
2023-03-18T07:50:18.820Z,7.13
2023-03-18T07:52:47.978Z,8.57
2023-03-18T07:55:16.539Z,10.00
2023-03-18T07:57:44.663Z,9.77
2023-03-18T08:00:14.154Z,8.57
2023-03-18T08:02:42.841Z,10.95
2023-03-18T08:05:11.223Z,11.07
2023-03-18T08:07:39.504Z,8.95
2023-03-18T08:10:09.238Z,6.03
2023-03-18T08:12:51.659Z,7.38
2023-03-18T08:15:20.346Z,9.88
2023-03-18T08:17:48.753Z,10.13
2023-03-18T08:20:16.918Z,8.50
2023-03-18T08:22:46.256Z,9.27
2023-03-18T08:25:14.166Z,4.88
2023-03-18T08:27:42.626Z,8.55
2023-03-18T08:30:11.388Z,5.90
2023-03-18T08:32:39.534Z,11.43
2023-03-18T08:35:07.908Z,6.95
2023-03-18T08:37:37.064Z,7.07
2023-03-18T08:40:06.299Z,8.82
2023-03-18T08:42:34.450Z,10.63
2023-03-18T08:45:03.001Z,16.38
2023-03-18T08:47:32.032Z,10.55
2023-03-18T08:49:59.653Z,10.90
2023-03-18T08:52:27.907Z,10.57
2023-03-18T08:54:55.732Z,10.75
2023-03-18T08:57:24.171Z,9.57
2023-03-18T08:59:52.043Z,8.00
2023-03-18T09:02:20.769Z,11.13
2023-03-18T09:04:49.532Z,10.48
2023-03-18T09:07:19.187Z,11.38
2023-03-18T09:09:46.976Z,10.95
2023-03-18T09:12:15.658Z,11.40
2023-03-18T09:14:44.384Z,14.48
2023-03-18T09:17:13.067Z,6.25
2023-03-18T09:19:40.978Z,10.52
2023-03-18T09:22:12.433Z,11.02
2023-03-18T09:24:41.258Z,8.30
2023-03-18T09:27:09.678Z,5.80
2023-03-18T09:29:37.438Z,9.57
2023-03-18T09:32:06.332Z,9.35
2023-03-18T09:34:34.164Z,11.55
2023-03-18T09:37:02.587Z,5.07
2023-03-18T09:39:30.333Z,8.13
2023-03-18T09:42:17.348Z,9.15
2023-03-18T09:44:45.619Z,6.78
2023-03-18T09:47:36.666Z,7.97
2023-03-18T09:50:11.165Z,8.60
2023-03-18T09:52:48.953Z,11.48
2023-03-18T09:55:28.041Z,8.63
2023-03-18T09:58:03.562Z,9.25
2023-03-18T10:00:35.616Z,9.80
2023-03-18T10:03:20.156Z,7.95
2023-03-18T10:05:52.854Z,9.75
2023-03-18T10:08:52.344Z,8.57
2023-03-18T10:11:27.961Z,12.75
2023-03-18T10:14:09.297Z,11.10
2023-03-18T10:17:06.517Z,8.05
2023-03-18T10:19:35.262Z,8.75
2023-03-18T10:22:30.228Z,7.20
2023-03-18T10:25:01.777Z,6.53
2023-03-18T10:28:06.970Z,9.15
2023-03-18T10:30:46.142Z,12.40
2023-03-18T10:33:19.278Z,9.15
2023-03-18T10:36:13.748Z,8.90
2023-03-18T10:38:45.173Z,7.03
2023-03-18T10:41:17.935Z,9.17
2023-03-18T10:43:48.433Z,9.35
2023-03-18T10:46:17.377Z,6.18
2023-03-18T10:48:52.803Z,7.18
2023-03-18T10:51:31.666Z,9.90
2023-03-18T10:54:22.584Z,11.77
2023-03-18T10:56:51.253Z,8.73
2023-03-18T10:59:21.060Z,7.80
2023-03-18T11:01:54.658Z,12.65
2023-03-18T11:04:24.291Z,9.00
2023-03-18T11:07:04.006Z,4.60
2023-03-18T11:09:34.460Z,8.57
2023-03-18T11:12:29.414Z,7.15
2023-03-18T11:14:58.412Z,9.52
2023-03-18T11:17:35.691Z,8.85
2023-03-18T11:20:21.007Z,10.77
2023-03-18T11:22:52.231Z,11.02
2023-03-18T11:25:24.691Z,10.27
2023-03-18T11:28:03.600Z,10.55
2023-03-18T11:30:46.991Z,13.70
2023-03-18T11:33:17.789Z,8.38
2023-03-18T11:35:58.764Z,7.63
2023-03-18T11:38:29.883Z,7.63
2023-03-18T11:41:18.494Z,13.27
2023-03-18T11:44:11.690Z,6.97
2023-03-18T11:47:16.736Z,10.75
2023-03-18T11:49:45.018Z,9.88
2023-03-18T11:52:40.003Z,10.70
2023-03-18T11:55:18.668Z,9.52
2023-03-18T11:58:00.145Z,8.13
2023-03-18T12:00:34.601Z,7.80
2023-03-18T12:03:31.519Z,6.80
2023-03-18T12:06:14.705Z,10.23
2023-03-18T12:09:21.571Z,10.10
2023-03-18T12:11:49.414Z,10.15
2023-03-18T12:14:26.105Z,9.77
2023-03-18T12:17:08.508Z,7.95
2023-03-18T12:19:57.681Z,8.60
2023-03-18T12:22:51.608Z,7.75
2023-03-18T12:25:30.898Z,6.82
2023-03-18T12:28:11.339Z,7.40
2023-03-18T12:30:48.060Z,13.13
2023-03-18T12:33:37.499Z,7.35
2023-03-18T12:36:24.280Z,9.63
2023-03-18T12:39:31.128Z,11.00
2023-03-18T12:42:03.386Z,9.10
2023-03-18T12:44:46.951Z,7.40
2023-03-18T12:47:15.692Z,11.07
2023-03-18T12:49:57.015Z,19.25
2023-03-18T12:52:46.829Z,9.18
2023-03-18T12:55:48.125Z,8.63
2023-03-18T12:58:19.583Z,7.93
2023-03-18T13:00:54.173Z,9.60
2023-03-18T13:03:35.060Z,10.13
2023-03-18T13:06:23.326Z,9.15
2023-03-18T13:09:22.465Z,8.25
2023-03-18T13:12:12.877Z,10.48
2023-03-18T13:15:25.918Z,7.07
2023-03-18T13:17:57.466Z,8.73
2023-03-18T13:20:29.187Z,12.75
2023-03-18T13:23:16.411Z,7.43
2023-03-18T13:26:05.962Z,16.42
2023-03-18T13:28:45.435Z,8.30
2023-03-18T13:31:39.354Z,10.63
2023-03-18T13:34:45.450Z,10.27
2023-03-18T13:37:30.724Z,7.93
2023-03-18T13:40:36.857Z,8.15
2023-03-18T13:43:06.351Z,9.32
2023-03-18T13:45:39.938Z,7.57
2023-03-18T13:50:40.332Z,13.68
2023-03-18T13:53:29.699Z,8.68
2023-03-18T13:56:00.776Z,9.38
2023-03-18T13:58:41.839Z,11.52
2023-03-18T14:01:33.618Z,6.70
2023-03-18T14:04:33.954Z,11.90
2023-03-18T14:07:23.108Z,11.35
2023-03-18T14:10:18.457Z,6.88
2023-03-18T14:12:48.170Z,6.78
2023-03-18T14:15:17.004Z,9.88
2023-03-18T14:18:03.458Z,14.07
2023-03-18T14:20:39.606Z,7.43
2023-03-18T14:23:28.208Z,10.65
2023-03-18T14:26:24.730Z,10.82
2023-03-18T14:29:22.903Z,10.52
2023-03-18T14:31:58.244Z,7.18
2023-03-18T14:34:28.526Z,17.58
2023-03-18T14:36:56.813Z,9.98
2023-03-18T14:39:43.584Z,6.38
2023-03-18T14:42:32.194Z,13.45
2023-03-18T14:45:12.153Z,9.32
2023-03-18T14:47:46.822Z,8.07
2023-03-18T14:50:29.557Z,16.30
2023-03-18T14:53:03.312Z,15.17
2023-03-18T14:55:34.293Z,18.48
2023-03-18T14:58:03.272Z,14.85
2023-03-18T15:00:36.010Z,16.55
2023-03-18T15:03:11.920Z,11.15
2023-03-18T15:05:42.394Z,12.23
2023-03-18T15:08:18.653Z,9.55
2023-03-18T15:10:49.936Z,9.68
2023-03-18T15:13:20.386Z,9.32
2023-03-18T15:15:49.198Z,8.45
2023-03-18T15:18:34.569Z,9.07
2023-03-18T15:21:28.950Z,7.85
2023-03-18T15:26:30.971Z,16.10
2023-03-18T15:29:00.769Z,8.30
2023-03-18T15:31:39.296Z,15.48
2023-03-18T15:34:16.076Z,12.77
2023-03-18T15:36:46.849Z,14.70
2023-03-18T15:39:33.935Z,14.75
2023-03-18T15:42:03.794Z,16.73
2023-03-18T15:44:35.765Z,16.85
2023-03-18T15:47:11.307Z,18.25
2023-03-18T15:49:51.728Z,15.88
2023-03-18T15:52:25.278Z,11.98
2023-03-18T15:54:53.949Z,12.30
2023-03-18T15:57:43.614Z,9.55
2023-03-18T16:00:13.291Z,9.05
2023-03-18T16:02:41.978Z,10.45
2023-03-18T16:05:18.319Z,10.27
2023-03-18T16:07:47.313Z,9.35
2023-03-18T16:10:20.922Z,7.75
2023-03-18T16:12:55.892Z,13.60
2023-03-18T16:15:25.554Z,12.50
2023-03-18T16:17:55.122Z,16.00
2023-03-18T16:20:24.590Z,12.43
2023-03-18T16:22:52.736Z,11.23
2023-03-18T16:25:20.573Z,12.98
2023-03-18T16:27:50.503Z,18.20
2023-03-18T16:30:30.388Z,10.85
2023-03-18T16:32:59.313Z,13.18
2023-03-18T16:35:31.171Z,10.05
2023-03-18T16:38:00.583Z,11.30
2023-03-18T16:40:33.097Z,13.75
2023-03-18T16:43:01.538Z,17.45
2023-03-18T16:45:31.273Z,13.60
2023-03-18T16:48:02.499Z,22.70
2023-03-18T16:50:34.410Z,17.58
2023-03-18T16:53:03.642Z,15.85
2023-03-18T16:55:31.797Z,12.25
2023-03-18T16:58:01.042Z,12.95
2023-03-18T17:00:32.964Z,10.63
2023-03-18T17:03:02.404Z,12.55
2023-03-18T17:05:31.419Z,15.15
2023-03-18T17:07:59.852Z,19.63
2023-03-18T17:10:28.746Z,16.60
2023-03-18T17:13:02.405Z,12.70
2023-03-18T17:18:01.899Z,14.32
2023-03-18T17:20:32.604Z,18.38
2023-03-18T18:27:16.492Z,15.35
2023-03-18T18:29:46.217Z,23.35
2023-03-18T18:32:15.800Z,24.15
2023-03-18T18:34:44.322Z,18.00
2023-03-18T18:37:13.150Z,22.90
2023-03-18T18:39:42.867Z,20.25
2023-03-18T18:42:14.521Z,20.08
2023-03-18T18:44:43.815Z,20.48
2023-03-18T18:47:20.409Z,18.05
2023-03-18T18:49:49.032Z,24.55
2023-03-18T18:52:17.134Z,24.20
2023-03-18T18:54:45.609Z,18.80
2023-03-18T18:57:27.039Z,20.42
2023-03-18T18:59:55.917Z,21.05
2023-03-18T19:02:32.622Z,21.45
2023-03-18T19:05:02.913Z,22.85
2023-03-18T19:07:33.861Z,21.67
2023-03-18T19:10:02.368Z,20.95
2023-03-18T19:12:30.931Z,24.33
2023-03-18T19:14:59.924Z,17.83
2023-03-18T19:17:28.063Z,23.25
2023-03-18T19:19:56.302Z,25.67
2023-03-18T19:22:25.736Z,23.00
2023-03-18T19:24:55.049Z,24.48
2023-03-18T19:27:24.068Z,20.15
2023-03-18T19:30:00.485Z,23.15
2023-03-18T19:32:28.250Z,23.08
2023-03-18T19:34:56.623Z,25.88
2023-03-18T19:37:28.328Z,27.17
2023-03-18T19:39:57.323Z,23.15
2023-03-18T19:42:25.790Z,25.33
2023-03-18T19:44:54.376Z,23.58
2023-03-18T19:47:27.040Z,24.38
2023-03-18T19:49:56.144Z,21.95
2023-03-18T19:52:26.288Z,17.90
2023-03-18T19:54:55.890Z,24.38
2023-03-18T19:57:28.516Z,25.13
2023-03-18T19:59:58.752Z,24.00
2023-03-18T20:02:31.973Z,26.25
2023-03-18T20:05:03.727Z,24.58
2023-03-18T20:07:33.210Z,23.88
2023-03-18T20:10:01.329Z,26.98
2023-03-18T20:12:31.937Z,27.38
2023-03-18T20:15:00.253Z,26.52
2023-03-18T20:17:31.484Z,26.95
2023-03-18T20:20:00.079Z,30.52
2023-03-18T20:22:34.072Z,33.17
2023-03-18T20:25:04.120Z,29.40
2023-03-18T20:27:33.104Z,33.45
2023-03-18T20:30:01.788Z,28.80
2023-03-18T20:32:30.186Z,29.67
2023-03-18T20:34:58.395Z,30.73
2023-03-18T20:37:33.703Z,28.95
2023-03-18T20:40:07.588Z,32.28
2023-03-18T20:45:03.564Z,29.52
2023-03-18T20:47:31.812Z,25.25
2023-03-18T20:49:59.978Z,27.45
2023-03-18T20:52:31.596Z,28.08
2023-03-18T20:55:00.092Z,26.40
2023-03-18T20:57:28.244Z,30.58
2023-03-18T20:59:56.984Z,31.23
2023-03-18T21:02:33.928Z,31.13
2023-03-18T21:05:03.531Z,35.35
2023-03-18T21:07:31.680Z,25.85
2023-03-18T21:10:01.257Z,32.40
2023-03-18T21:12:29.047Z,34.05
2023-03-18T21:14:57.040Z,31.65
2023-03-18T21:17:27.634Z,34.67
2023-03-18T21:20:05.005Z,30.27
2023-03-18T21:22:39.811Z,32.05
2023-03-18T21:25:10.954Z,27.23
2023-03-18T21:27:38.961Z,31.70
2023-03-18T21:30:09.850Z,30.55
2023-03-18T21:32:39.194Z,31.35
2023-03-18T21:35:12.578Z,28.13
2023-03-18T21:37:40.434Z,31.00
2023-03-18T21:40:15.443Z,28.70
2023-03-18T21:42:43.994Z,42.95
2023-03-18T21:45:19.302Z,26.00
2023-03-18T21:51:39.102Z,29.42
2023-03-18T21:54:17.589Z,31.60
2023-03-18T21:56:46.677Z,29.08
2023-03-18T21:59:14.701Z,28.42
2023-03-18T22:01:43.011Z,27.20
2023-03-18T22:04:10.665Z,29.42
2023-03-18T22:06:39.016Z,29.23
2023-03-18T22:09:07.571Z,41.15
2023-03-18T22:11:36.281Z,33.15
2023-03-18T22:14:04.197Z,36.78
2023-03-18T22:16:32.781Z,30.92
2023-03-18T22:19:01.350Z,31.70
2023-03-18T22:21:30.019Z,37.20
2023-03-18T22:24:00.457Z,32.22
2023-03-18T22:26:29.189Z,31.50
2023-03-18T22:28:56.984Z,33.53
2023-03-18T22:31:28.949Z,30.38
2023-03-18T22:33:58.510Z,31.80
2023-03-18T22:36:29.064Z,28.70
2023-03-18T22:38:57.137Z,31.98
2023-03-18T22:41:30.604Z,28.55
2023-03-18T22:44:00.136Z,35.22
2023-03-18T22:46:28.830Z,35.53
2023-03-18T22:48:57.289Z,30.33
2023-03-18T22:51:30.833Z,32.47
2023-03-18T22:53:58.745Z,40.70
2023-03-18T22:56:27.197Z,32.00
2023-03-18T22:58:55.085Z,31.80
2023-03-18T23:01:28.560Z,35.00
2023-03-18T23:06:24.940Z,39.63
2023-03-18T23:08:52.781Z,40.45
2023-03-18T23:11:21.220Z,31.63
2023-03-18T23:13:54.090Z,39.35
2023-03-18T23:16:23.977Z,37.40
2023-03-18T23:18:52.365Z,39.17
2023-03-18T23:21:23.290Z,33.30
2023-03-18T23:23:52.642Z,35.40
2023-03-18T23:26:21.219Z,30.40
2023-03-18T23:28:49.859Z,31.08
2023-03-18T23:31:18.534Z,34.60
2023-03-18T23:33:47.387Z,33.03
2023-03-18T23:36:16.298Z,31.45
2023-03-18T23:38:43.794Z,39.83
2023-03-18T23:41:13.012Z,41.67
2023-03-18T23:43:40.797Z,39.40
2023-03-18T23:46:09.596Z,28.58
2023-03-18T23:48:37.870Z,36.80
2023-03-18T23:51:06.103Z,32.40
2023-03-18T23:53:33.952Z,33.38
2023-03-18T23:56:02.102Z,34.30
2023-03-18T23:58:29.839Z,43.00
